Cotton City, New Mexico
Current Conditions -  °F | °C
As of 10:35 PM on Wednesday 17 Dec 2014 (Local Time) from KLSB Reporting Station
Overcast Overcast  
Wind Chill: 38°   Ceiling: 3900
Heat Index: 41°   Visibility: 10mi
Dew Point: 37°   Wind: 5mph
Humidity: 87%   Direction: 330°NNW
Pressure: 30.17"   Gusts: NA
Location:  31.6273°N, 108.641°W
Report Text: KLSB 180535Z AUTO 33004KT 10SM SCT027 BKN039 OVC046 05/03 A3017 RMK AO2
Loading
Personal Weather Stations






























Interactive Weather Map New forecast layout! Learn more

10-Day Weather Forecast

Advertisements
Track Severe Weather on mobile